createdAt,value
2023-05-01T00:01:52.628Z,84.60
2023-05-01T00:04:21.839Z,83.80
2023-05-01T00:06:49.069Z,84.70
2023-05-01T00:09:16.207Z,84.70
2023-05-01T00:11:43.265Z,84.50
2023-05-01T00:14:10.387Z,83.90
2023-05-01T00:16:37.952Z,84.80
2023-05-01T00:19:05.139Z,84.60
2023-05-01T00:21:32.318Z,84.30
2023-05-01T00:23:59.414Z,84.70
2023-05-01T00:26:30.338Z,84.60
2023-05-01T00:28:58.210Z,85.50
2023-05-01T00:31:26.048Z,86.00
2023-05-01T00:33:53.707Z,86.10
2023-05-01T00:36:20.842Z,86.10
2023-05-01T00:38:47.974Z,86.10
2023-05-01T00:41:15.117Z,86.00
2023-05-01T00:43:42.234Z,85.70
2023-05-01T00:46:10.004Z,85.90
2023-05-01T00:48:37.460Z,85.40
2023-05-01T00:51:07.386Z,85.50
2023-05-01T00:53:34.572Z,85.80
2023-05-01T00:56:02.368Z,85.00
2023-05-01T00:58:29.908Z,85.40
2023-05-01T01:00:57.186Z,85.30
2023-05-01T01:03:24.393Z,85.20
2023-05-01T01:05:57.002Z,85.20
2023-05-01T01:08:30.692Z,85.20
2023-05-01T01:11:48.983Z,85.10
2023-05-01T01:14:20.210Z,85.00
2023-05-01T01:17:07.992Z,85.00
2023-05-01T01:19:54.716Z,84.90
2023-05-01T01:22:24.779Z,85.00
2023-05-01T01:25:18.724Z,84.60
2023-05-01T01:28:13.747Z,85.20
2023-05-01T01:31:09.252Z,85.20
2023-05-01T01:33:56.501Z,85.00
2023-05-01T01:36:38.831Z,84.80
2023-05-01T01:39:16.210Z,84.70
2023-05-01T01:41:49.168Z,85.90
2023-05-01T01:44:22.744Z,86.70
2023-05-01T01:46:52.910Z,87.30
2023-05-01T01:49:24.494Z,87.30
2023-05-01T01:51:53.132Z,87.80
2023-05-01T01:54:29.138Z,87.70
2023-05-01T01:56:59.268Z,87.70
2023-05-01T01:59:28.111Z,86.90
2023-05-01T02:01:56.585Z,87.30
2023-05-01T02:04:27.532Z,86.70
2023-05-01T02:06:59.857Z,86.80
2023-05-01T02:09:29.622Z,86.70
2023-05-01T02:11:58.388Z,86.70
2023-05-01T02:14:26.988Z,86.40
2023-05-01T02:16:54.866Z,86.70
2023-05-01T02:19:23.274Z,87.00
2023-05-01T02:21:52.251Z,87.00
2023-05-01T02:24:22.530Z,87.10
2023-05-01T02:26:59.423Z,86.70
2023-05-01T02:29:27.971Z,86.80
2023-05-01T02:31:55.488Z,86.60
2023-05-01T02:34:22.629Z,86.60
2023-05-01T02:36:49.744Z,86.50
2023-05-01T02:39:17.178Z,87.80
2023-05-01T02:41:46.408Z,88.60
2023-05-01T02:44:13.817Z,89.10
2023-05-01T02:46:43.627Z,89.20
2023-05-01T02:49:12.289Z,89.60
2023-05-01T02:51:40.965Z,89.20
2023-05-01T02:54:08.223Z,89.20
2023-05-01T02:56:35.938Z,88.90
2023-05-01T02:59:02.996Z,88.60
2023-05-01T03:01:30.214Z,88.90
2023-05-01T03:03:58.125Z,88.90
2023-05-01T03:06:25.303Z,88.80
2023-05-01T03:08:52.367Z,89.10
2023-05-01T03:11:19.394Z,89.00
2023-05-01T03:13:47.517Z,88.90
2023-05-01T03:16:14.668Z,89.10
2023-05-01T03:18:41.784Z,88.90
2023-05-01T03:21:08.865Z,88.90
2023-05-01T03:23:36.081Z,88.90
2023-05-01T03:26:03.123Z,88.70
2023-05-01T03:28:30.166Z,89.00
2023-05-01T03:30:57.299Z,88.70
2023-05-01T03:33:24.440Z,88.70
2023-05-01T03:36:03.603Z,88.80
2023-05-01T03:38:31.783Z,88.90
2023-05-01T03:40:59.280Z,89.10
2023-05-01T03:43:26.447Z,88.40
2023-05-01T03:45:53.596Z,88.60
2023-05-01T03:48:21.082Z,88.20
2023-05-01T03:50:48.185Z,88.40
2023-05-01T03:53:15.316Z,88.30
2023-05-01T03:55:42.682Z,88.20
2023-05-01T03:58:10.624Z,88.10
2023-05-01T04:00:37.866Z,89.00
2023-05-01T04:03:05.832Z,87.80
2023-05-01T04:05:33.500Z,87.60
2023-05-01T04:08:00.706Z,88.00
2023-05-01T04:10:27.792Z,87.30
2023-05-01T04:12:54.857Z,87.00
2023-05-01T04:15:22.499Z,87.10
2023-05-01T04:17:49.857Z,87.30
2023-05-01T04:20:19.049Z,87.40
2023-05-01T04:22:46.127Z,87.30
2023-05-01T04:25:13.167Z,87.80
2023-05-01T04:27:40.226Z,88.00
2023-05-01T04:30:08.331Z,87.80
2023-05-01T04:32:36.270Z,87.60
2023-05-01T04:35:04.751Z,87.70
2023-05-01T04:37:31.785Z,87.50
2023-05-01T04:39:59.030Z,87.70
2023-05-01T04:42:31.389Z,87.70
2023-05-01T04:45:01.525Z,87.80
2023-05-01T04:47:28.830Z,87.90
2023-05-01T04:49:56.234Z,87.80
2023-05-01T04:52:23.536Z,87.80
2023-05-01T04:54:51.046Z,87.70
2023-05-01T04:57:18.182Z,87.70
2023-05-01T04:59:45.268Z,87.30
2023-05-01T05:02:12.308Z,87.30
2023-05-01T05:04:39.368Z,86.80
2023-05-01T05:07:06.783Z,86.30
2023-05-01T05:09:33.980Z,86.10
2023-05-01T05:12:01.113Z,86.00
2023-05-01T05:14:28.157Z,85.90
2023-05-01T05:16:55.359Z,85.70
2023-05-01T05:19:22.524Z,85.90
2023-05-01T05:21:49.565Z,85.90
2023-05-01T05:24:16.617Z,85.20
2023-05-01T05:26:43.684Z,85.00
2023-05-01T05:29:10.768Z,86.10
2023-05-01T05:31:37.985Z,86.50
2023-05-01T05:34:05.113Z,86.80
2023-05-01T05:36:32.240Z,86.40
2023-05-01T05:38:59.743Z,86.10
2023-05-01T05:41:27.117Z,86.10
2023-05-01T05:43:54.334Z,85.90
2023-05-01T05:46:21.488Z,85.90
2023-05-01T05:48:48.734Z,85.80
2023-05-01T05:51:15.905Z,85.80
2023-05-01T05:53:42.985Z,85.60
2023-05-01T05:56:10.050Z,85.70
2023-05-01T05:58:37.615Z,85.80
2023-05-01T06:01:06.624Z,85.70
2023-05-01T06:03:34.065Z,85.80
2023-05-01T06:06:01.581Z,85.60
2023-05-01T06:08:28.732Z,85.90
2023-05-01T06:10:56.438Z,85.20
2023-05-01T06:13:23.528Z,85.20
2023-05-01T06:15:50.767Z,85.20
2023-05-01T06:18:18.110Z,85.00
2023-05-01T06:20:45.691Z,84.80
2023-05-01T06:23:13.727Z,85.00
2023-05-01T06:25:40.872Z,85.00
2023-05-01T06:28:08.052Z,85.10
2023-05-01T06:30:35.103Z,85.00
2023-05-01T06:33:02.436Z,84.90
2023-05-01T06:35:29.592Z,85.10
2023-05-01T06:37:56.700Z,84.40
2023-05-01T06:40:23.758Z,85.50
2023-05-01T06:42:50.948Z,84.70
2023-05-01T06:45:18.097Z,84.80
2023-05-01T06:47:45.212Z,84.50
2023-05-01T06:50:12.363Z,84.50
2023-05-01T06:52:40.450Z,84.40
2023-05-01T06:55:07.961Z,84.30
2023-05-01T06:57:35.055Z,84.20
2023-05-01T07:00:02.250Z,84.70
2023-05-01T07:02:31.246Z,84.00
2023-05-01T07:04:58.500Z,83.70
2023-05-01T07:07:25.543Z,83.70
2023-05-01T07:09:52.595Z,82.00
2023-05-01T07:12:19.670Z,82.00
2023-05-01T07:14:47.063Z,82.00
2023-05-01T07:17:14.116Z,81.90
2023-05-01T07:19:41.544Z,81.80
2023-05-01T07:22:08.602Z,82.20
2023-05-01T07:24:35.651Z,82.60
2023-05-01T07:27:02.795Z,82.60
2023-05-01T07:29:29.867Z,83.00
2023-05-01T07:31:56.981Z,83.70
2023-05-01T07:34:24.353Z,84.20
2023-05-01T07:36:51.414Z,84.10
2023-05-01T07:39:18.522Z,84.40
2023-05-01T07:41:45.641Z,84.50
2023-05-01T07:44:13.551Z,84.70
2023-05-01T07:46:40.804Z,85.00
2023-05-01T07:49:07.939Z,85.30
2023-05-01T07:51:35.010Z,85.20
2023-05-01T07:54:04.148Z,85.10
2023-05-01T07:56:31.530Z,85.10
2023-05-01T07:58:58.763Z,85.10
2023-05-01T08:01:26.040Z,85.20
2023-05-01T08:03:53.242Z,85.20
2023-05-01T08:06:20.643Z,85.10
2023-05-01T08:08:47.735Z,85.20
2023-05-01T08:11:14.923Z,85.10
2023-05-01T08:13:41.991Z,85.00
2023-05-01T08:16:09.197Z,84.90
2023-05-01T08:18:36.310Z,84.90
2023-05-01T08:21:03.493Z,84.80
2023-05-01T08:23:30.586Z,84.80
2023-05-01T08:25:57.985Z,84.80
2023-05-01T08:28:25.304Z,84.80
2023-05-01T08:30:52.382Z,84.80
2023-05-01T08:33:19.572Z,84.80
2023-05-01T08:35:46.690Z,84.50
2023-05-01T08:38:13.985Z,84.90
2023-05-01T08:40:43.291Z,84.90
2023-05-01T08:43:11.045Z,84.80
2023-05-01T08:45:38.700Z,84.90
2023-05-01T08:48:10.244Z,85.00
2023-05-01T08:50:39.407Z,84.90
2023-05-01T08:53:08.134Z,85.00
2023-05-01T08:55:37.370Z,84.90
2023-05-01T08:58:07.718Z,84.90
2023-05-01T09:00:36.996Z,85.20
2023-05-01T09:03:05.408Z,85.30
2023-05-01T09:05:33.317Z,85.40
2023-05-01T09:08:01.083Z,85.60
2023-05-01T09:10:30.662Z,85.80
2023-05-01T09:13:02.166Z,86.00
2023-05-01T09:15:30.356Z,86.10
2023-05-01T09:18:01.648Z,86.10
2023-05-01T09:20:31.936Z,86.10
2023-05-01T09:22:59.238Z,86.00
2023-05-01T09:25:26.388Z,86.00
2023-05-01T09:27:53.673Z,85.90
2023-05-01T09:30:51.187Z,85.90
2023-05-01T09:33:18.291Z,86.10
2023-05-01T09:35:59.629Z,86.30
2023-05-01T09:38:28.547Z,86.20
2023-05-01T09:41:03.618Z,86.20
2023-05-01T09:43:31.610Z,86.30
2023-05-01T09:46:09.641Z,86.40
2023-05-01T09:48:37.945Z,86.70
2023-05-01T09:51:24.541Z,86.70
2023-05-01T09:53:52.347Z,87.00
2023-05-01T09:56:21.190Z,87.00
2023-05-01T09:58:51.040Z,87.20
2023-05-01T10:01:19.455Z,87.20
2023-05-01T10:03:54.162Z,87.60
2023-05-01T10:06:28.715Z,87.60
2023-05-01T10:08:56.038Z,87.20
2023-05-01T10:11:23.577Z,86.90
2023-05-01T10:14:10.260Z,84.60
2023-05-01T10:16:38.755Z,81.70
2023-05-01T10:19:06.524Z,82.10
2023-05-01T10:21:34.287Z,82.20
2023-05-01T10:24:06.379Z,82.80
2023-05-01T10:26:34.850Z,82.60
2023-05-01T10:29:03.045Z,82.60
2023-05-01T10:31:32.710Z,83.20
2023-05-01T10:34:03.038Z,82.40
2023-05-01T10:36:39.188Z,81.40
2023-05-01T10:39:07.038Z,80.60
2023-05-01T10:41:59.237Z,81.70
2023-05-01T10:44:27.267Z,81.20
2023-05-01T10:46:55.369Z,82.60
2023-05-01T10:49:23.066Z,81.90
2023-05-01T10:51:59.409Z,78.70
2023-05-01T10:54:28.118Z,80.30
2023-05-01T10:56:58.555Z,81.00
2023-05-01T10:59:26.070Z,82.10
2023-05-01T11:01:53.885Z,82.70
2023-05-01T11:04:27.362Z,82.70
2023-05-01T11:07:10.732Z,84.20
2023-05-01T11:10:01.986Z,84.10
2023-05-01T11:12:51.454Z,84.50
2023-05-01T11:15:32.018Z,81.70
2023-05-01T11:18:01.163Z,81.70
2023-05-01T11:20:29.081Z,80.10
2023-05-01T11:22:57.193Z,81.30
2023-05-01T11:25:30.464Z,81.50
2023-05-01T11:28:03.617Z,82.20
2023-05-01T11:30:37.914Z,82.90
2023-05-01T11:33:05.742Z,83.40
2023-05-01T11:35:33.975Z,83.30
2023-05-01T11:38:01.256Z,83.60
2023-05-01T11:40:31.577Z,83.90
2023-05-01T11:43:08.808Z,84.00
2023-05-01T11:45:37.731Z,84.00
2023-05-01T11:48:13.951Z,84.10
2023-05-01T11:50:41.286Z,84.00
2023-05-01T11:53:11.933Z,83.70
2023-05-01T11:55:40.032Z,84.00
2023-05-01T11:58:07.493Z,84.20
2023-05-01T12:00:43.173Z,84.30
2023-05-01T12:03:13.411Z,83.60
2023-05-01T12:05:45.029Z,84.30
2023-05-01T12:08:20.787Z,82.40
2023-05-01T12:10:49.791Z,83.10
2023-05-01T12:13:17.259Z,81.90
2023-05-01T12:15:50.660Z,81.70
2023-05-01T12:18:18.215Z,81.00
2023-05-01T12:20:48.489Z,82.60
2023-05-01T12:23:16.829Z,81.40
2023-05-01T12:25:44.907Z,81.10
2023-05-01T12:28:18.284Z,82.10
2023-05-01T12:30:48.883Z,79.50
2023-05-01T12:33:20.256Z,81.20
2023-05-01T12:35:49.241Z,82.40
2023-05-01T12:38:21.207Z,80.40
2023-05-01T12:40:52.851Z,80.80
2023-05-01T12:43:22.388Z,82.60
2023-05-01T12:45:53.321Z,81.80
2023-05-01T12:48:21.185Z,79.50
2023-05-01T12:50:54.368Z,78.80
2023-05-01T12:53:23.276Z,79.50
2023-05-01T12:55:53.912Z,81.60
2023-05-01T12:58:21.238Z,83.50
2023-05-01T13:00:53.490Z,83.60
2023-05-01T13:03:25.893Z,80.50
2023-05-01T13:05:59.885Z,79.90
2023-05-01T13:08:30.019Z,79.20
2023-05-01T13:10:58.863Z,82.20
2023-05-01T13:13:31.588Z,82.50
2023-05-01T13:16:25.014Z,84.10
2023-05-01T13:18:52.858Z,83.90
2023-05-01T13:21:21.615Z,83.90
2023-05-01T13:23:55.818Z,85.30
2023-05-01T13:26:41.267Z,86.00
2023-05-01T13:29:14.640Z,86.30
2023-05-01T13:31:45.572Z,86.80
2023-05-01T13:34:19.903Z,87.10
2023-05-01T13:36:46.945Z,87.60
2023-05-01T13:39:21.284Z,87.90
2023-05-01T13:41:50.244Z,88.30
2023-05-01T13:44:19.087Z,88.80
2023-05-01T13:46:46.987Z,89.00
2023-05-01T13:49:17.583Z,89.20
2023-05-01T13:51:46.530Z,89.20
2023-05-01T13:54:13.910Z,89.30
2023-05-01T13:56:41.250Z,89.40
2023-05-01T13:59:09.159Z,89.60
2023-05-01T14:01:42.878Z,89.70
2023-05-01T14:04:13.278Z,89.50
2023-05-01T14:06:44.493Z,89.40
2023-05-01T14:09:11.731Z,89.50
2023-05-01T14:11:46.489Z,89.80
2023-05-01T14:14:17.912Z,89.80
2023-05-01T14:16:50.422Z,90.00
2023-05-01T14:19:18.353Z,90.00
2023-05-01T14:21:46.718Z,90.10
2023-05-01T14:24:17.852Z,90.20
2023-05-01T14:26:47.677Z,90.30
2023-05-01T14:29:23.739Z,90.40
2023-05-01T14:31:51.095Z,90.50
2023-05-01T14:34:19.549Z,90.50
2023-05-01T14:36:46.728Z,90.60
2023-05-01T14:39:18.194Z,90.70
2023-05-01T14:41:45.343Z,90.90
2023-05-01T14:44:19.011Z,91.00
2023-05-01T14:46:51.604Z,91.10
2023-05-01T14:49:21.479Z,91.00
2023-05-01T14:51:49.224Z,91.10
2023-05-01T14:54:16.751Z,91.20
2023-05-01T14:56:44.595Z,91.10
2023-05-01T14:59:12.382Z,91.10
2023-05-01T15:01:40.239Z,91.10
2023-05-01T15:04:07.596Z,91.40
2023-05-01T15:06:35.019Z,91.60
2023-05-01T15:09:04.434Z,91.60
2023-05-01T15:11:31.875Z,91.40
2023-05-01T15:13:58.981Z,91.50
2023-05-01T15:16:26.489Z,91.60
2023-05-01T15:18:53.718Z,91.70
2023-05-01T15:21:20.759Z,91.80
2023-05-01T15:23:50.796Z,91.80
2023-05-01T15:26:17.847Z,91.90
2023-05-01T15:28:44.913Z,92.00
2023-05-01T15:31:12.021Z,92.20
2023-05-01T15:33:39.244Z,92.30
2023-05-01T15:36:06.614Z,92.30
2023-05-01T15:38:33.689Z,92.30
2023-05-01T15:41:00.739Z,92.20
2023-05-01T15:43:28.146Z,92.40
2023-05-01T15:45:58.947Z,92.60
2023-05-01T15:48:26.261Z,92.60
2023-05-01T15:50:53.333Z,92.70
2023-05-01T15:53:21.227Z,92.60
2023-05-01T15:55:48.314Z,92.70
2023-05-01T15:58:16.670Z,92.80
2023-05-01T16:00:47.041Z,92.80
2023-05-01T16:03:15.467Z,92.80
2023-05-01T16:05:46.894Z,92.90
2023-05-01T16:08:14.547Z,92.80
2023-05-01T16:10:41.651Z,92.80
2023-05-01T16:13:08.765Z,92.80
2023-05-01T16:15:37.240Z,92.90
2023-05-01T16:18:05.071Z,92.80
2023-05-01T16:20:38.823Z,92.80
2023-05-01T16:23:06.143Z,92.70
2023-05-01T16:25:33.242Z,92.70
2023-05-01T16:28:00.475Z,92.60
2023-05-01T16:30:28.114Z,92.60
2023-05-01T16:32:55.315Z,92.60
2023-05-01T16:35:27.482Z,92.60
2023-05-01T16:37:55.357Z,92.60
2023-05-01T16:40:22.920Z,92.60
2023-05-01T16:42:54.254Z,92.80
2023-05-01T16:45:21.922Z,92.70
2023-05-01T16:47:49.214Z,92.80
2023-05-01T16:50:17.126Z,93.40
2023-05-01T16:52:44.347Z,93.70
2023-05-01T16:55:11.629Z,93.60
2023-05-01T16:57:38.890Z,93.60
2023-05-01T17:00:09.202Z,93.70
2023-05-01T17:02:36.924Z,93.80
2023-05-01T17:05:04.293Z,93.70
2023-05-01T17:07:31.595Z,93.80
2023-05-01T17:09:59.104Z,93.90
2023-05-01T17:12:27.674Z,94.00
2023-05-01T17:14:54.928Z,93.90
2023-05-01T17:17:22.474Z,93.90
2023-05-01T17:19:49.921Z,93.90
2023-05-01T17:22:17.050Z,93.80
2023-05-01T17:24:44.094Z,93.80
2023-05-01T17:27:12.171Z,93.80
2023-05-01T17:29:39.304Z,93.70
2023-05-01T17:32:06.767Z,93.70
2023-05-01T17:34:34.053Z,93.60
2023-05-01T17:37:01.128Z,93.60
2023-05-01T17:39:28.311Z,93.50
2023-05-01T17:41:55.478Z,93.30
2023-05-01T17:44:22.580Z,93.40
2023-05-01T17:46:49.639Z,93.40
2023-05-01T17:49:16.729Z,93.20
2023-05-01T17:51:45.129Z,93.30
2023-05-01T17:54:12.279Z,93.30
2023-05-01T17:56:39.635Z,93.50
2023-05-01T17:59:07.129Z,93.70
2023-05-01T18:01:34.570Z,93.50
2023-05-01T18:04:01.961Z,93.60
2023-05-01T18:06:29.276Z,93.80
2023-05-01T18:08:56.346Z,93.70
2023-05-01T18:11:23.517Z,93.80
2023-05-01T18:13:50.771Z,93.80
2023-05-01T18:16:18.519Z,93.70
2023-05-01T18:18:47.978Z,93.70
2023-05-01T18:21:15.054Z,93.50
2023-05-01T18:23:42.135Z,93.60
2023-05-01T18:26:09.265Z,93.50
2023-05-01T18:28:36.702Z,93.10
2023-05-01T18:31:03.876Z,93.30
2023-05-01T18:33:31.458Z,93.20
2023-05-01T18:35:58.578Z,93.20
2023-05-01T18:38:28.119Z,93.00
2023-05-01T18:40:55.534Z,93.10
2023-05-01T18:43:22.617Z,93.20
2023-05-01T18:45:49.675Z,93.50
2023-05-01T18:48:16.766Z,93.50
2023-05-01T18:50:49.317Z,93.60
2023-05-01T18:53:25.085Z,93.60
2023-05-01T18:55:52.137Z,93.60
2023-05-01T18:58:19.198Z,93.70
2023-05-01T19:00:46.451Z,93.60
2023-05-01T19:03:13.856Z,93.60
2023-05-01T19:05:41.366Z,93.60
2023-05-01T19:08:09.420Z,93.50
2023-05-01T19:10:39.559Z,93.50
2023-05-01T19:13:07.296Z,93.60
2023-05-01T19:15:34.569Z,93.60
2023-05-01T19:18:02.423Z,93.70
2023-05-01T19:20:29.588Z,93.50
2023-05-01T19:22:56.793Z,93.70
2023-05-01T19:25:24.269Z,93.60
2023-05-01T19:27:51.620Z,93.80
2023-05-01T19:30:18.765Z,93.70
2023-05-01T19:32:46.654Z,93.80
2023-05-01T19:35:13.903Z,93.80
2023-05-01T19:37:41.077Z,93.80
2023-05-01T19:40:08.670Z,93.90
2023-05-01T19:42:36.397Z,93.90
2023-05-01T19:45:04.074Z,93.90
2023-05-01T19:47:31.185Z,93.90
2023-05-01T19:49:58.532Z,93.90
2023-05-01T19:52:25.879Z,93.80
2023-05-01T19:54:53.022Z,93.90
2023-05-01T19:57:20.116Z,93.90
2023-05-01T19:59:47.497Z,94.00
2023-05-01T20:02:15.044Z,93.90
2023-05-01T20:04:42.216Z,94.00
2023-05-01T20:07:09.316Z,93.90
2023-05-01T20:09:36.340Z,93.90
2023-05-01T20:12:03.969Z,94.00
2023-05-01T20:14:32.838Z,94.00
2023-05-01T20:17:01.481Z,93.90
2023-05-01T20:19:28.832Z,93.90
2023-05-01T20:21:55.954Z,93.90
2023-05-01T20:24:23.068Z,93.90
2023-05-01T20:26:53.699Z,93.80
2023-05-01T20:29:20.794Z,93.70
2023-05-01T20:31:49.629Z,93.80
2023-05-01T20:34:16.850Z,94.00
2023-05-01T20:36:44.520Z,93.80
2023-05-01T20:39:11.849Z,93.70
2023-05-01T20:41:38.941Z,93.50
2023-05-01T20:44:06.887Z,93.70
2023-05-01T20:46:33.943Z,93.70
2023-05-01T20:49:01.266Z,93.70
2023-05-01T20:51:28.382Z,93.80
2023-05-01T20:53:55.489Z,93.80
2023-05-01T20:56:23.625Z,93.90
2023-05-01T20:58:50.704Z,94.00
2023-05-01T21:01:17.852Z,94.00
2023-05-01T21:03:45.047Z,94.00
2023-05-01T21:06:14.163Z,94.00
2023-05-01T21:08:41.457Z,94.00
2023-05-01T21:11:08.510Z,94.00
2023-05-01T21:13:35.673Z,94.10
2023-05-01T21:16:05.559Z,93.90
2023-05-01T21:18:34.216Z,93.90
2023-05-01T21:21:02.373Z,94.10
2023-05-01T21:23:30.281Z,93.90
2023-05-01T21:25:57.404Z,93.80
2023-05-01T21:28:24.762Z,93.80
2023-05-01T21:30:51.860Z,94.00
2023-05-01T21:33:19.069Z,94.40
2023-05-01T21:35:46.658Z,94.50
2023-05-01T21:38:14.026Z,94.90
2023-05-01T21:40:42.845Z,94.60
2023-05-01T21:43:10.679Z,94.70
2023-05-01T21:45:42.348Z,94.70
2023-05-01T21:48:13.736Z,94.60
2023-05-01T21:50:41.019Z,94.40
2023-05-01T21:53:08.241Z,94.40
2023-05-01T21:55:35.532Z,94.40
2023-05-01T21:58:02.636Z,94.40
2023-05-01T22:00:30.019Z,94.40
2023-05-01T22:02:57.736Z,94.30
2023-05-01T22:05:24.914Z,94.30
2023-05-01T22:07:52.721Z,94.30
2023-05-01T22:10:20.916Z,94.30
2023-05-01T22:12:51.437Z,94.30
2023-05-01T22:15:18.599Z,94.20
2023-05-01T22:17:45.882Z,94.20
2023-05-01T22:20:13.086Z,94.00
2023-05-01T22:22:41.420Z,94.00
2023-05-01T22:25:09.915Z,94.00
2023-05-01T22:27:37.391Z,93.90
2023-05-01T22:30:05.504Z,93.90
2023-05-01T22:32:32.786Z,93.80
2023-05-01T22:35:00.050Z,94.20
2023-05-01T22:37:27.167Z,94.00
2023-05-01T22:39:54.283Z,94.10
2023-05-01T22:42:22.920Z,94.10
2023-05-01T22:44:50.024Z,94.10
2023-05-01T22:47:17.381Z,94.00
2023-05-01T22:49:44.500Z,94.00
2023-05-01T22:52:11.550Z,94.10
2023-05-01T22:54:38.763Z,94.10
2023-05-01T22:57:05.978Z,94.40
2023-05-01T22:59:33.148Z,94.30
2023-05-01T23:02:03.882Z,94.30
2023-05-01T23:04:32.109Z,94.10
2023-05-01T23:06:59.173Z,94.00
2023-05-01T23:09:26.509Z,93.80
2023-05-01T23:11:53.917Z,93.80
2023-05-01T23:14:21.080Z,93.70
2023-05-01T23:16:48.154Z,93.90
2023-05-01T23:19:23.351Z,93.60
2023-05-01T23:22:01.748Z,93.40
2023-05-01T23:24:43.908Z,93.50
2023-05-01T23:27:13.372Z,93.50
2023-05-01T23:29:41.286Z,93.40
2023-05-01T23:32:10.659Z,93.50
2023-05-01T23:34:39.987Z,93.50
2023-05-01T23:37:07.167Z,93.50
2023-05-01T23:39:34.251Z,93.40
2023-05-01T23:42:02.421Z,93.30
2023-05-01T23:44:30.292Z,93.30
2023-05-01T23:46:57.367Z,93.20
2023-05-01T23:49:24.680Z,93.60
2023-05-01T23:51:51.769Z,94.00
2023-05-01T23:54:19.329Z,94.00
2023-05-01T23:56:46.406Z,94.10
2023-05-01T23:59:14.758Z,94.10
